Ambler Airport Ambler US
ICAO: PAFM
IATA:
Category: Medium
Scheduled Services:

Elevation: 334 ft
TransAlt. 18000 ft.

Airport Communications:
AWOS 3:132.1
ANCHORAGE CNTR:119.2
CTAF:122.7
KOTEZBUE RDO:122
TWEB:40.3

PAFM Zoom In..

Runways:

(A) RW 09 length 2400 ft width 60 ft
---- / hdg 91

(B) RW 18 length 3000 ft width 60 ft
---- / hdg 181

(C) RW 27 length 2400 ft width 60 ft
---- / hdg 271

(D) RW 36 length 3000 ft width 60 ft
---- / hdg 1

Location; PAFM
Day. 06 / Time. 05.56 Zulu
* Altimeter: 29.93
* Temperature: 13° c. 55.4°f.
* Wind from: 310° Speed 03 kn.
Dewpoint: 09° c.
Visibility: 10 Statute Miles.
Clouds: Scattered 5000 ft.

PAFM 060556Z AUTO 31003KT 10SM SCT050 13/09 A2993 RMK AO2 RAE54 SLP139 P0001 60001 T01280094 10183 20128 52001


Wind From 310°
Speed 03 kn.

 
 
jpsmedia worldairports.se 2020   terms of use